Time;durP1;ratioP1;P1;durP2;ratioP2;P2;SDS_P1;SDS_P2;PMS_P1;PMS_P2;Temp;Humidity;BMP_temperature;BMP_pressure;BME280_temperature;BME280_humidity;BME280_pressure;Samples;Min_cycle;Max_cycle;Signal;HPM_P1;HPM_P2
2021/09/25 00:00:13;;;;;;;20.60;3.85;;;;;;;;;;4936483;28;20037;-63
2021/09/25 00:02:43;;;;;;;17.92;4.53;;;;;;;;;;4955325;28;20030;-62
2021/09/25 00:05:16;;;;;;;28.70;4.35;;;;;;;;;;4970507;28;20038;-64
2021/09/25 00:07:47;;;;;;;25.55;4.40;;;;;;;;;;4946057;28;20056;-63
2021/09/25 00:10:17;;;;;;;21.13;3.92;;;;;;;;;;4928868;28;20058;-62
2021/09/25 00:12:45;;;;;;;21.45;3.90;;;;;;;;;;4955509;28;20572;-63
2021/09/25 00:15:14;;;;;;;14.55;3.38;;;;;;;;;;4921135;28;20040;-63
2021/09/25 00:17:42;;;;;;;21.15;4.80;;;;;;;;;;4947545;28;20093;-64
2021/09/25 00:20:11;;;;;;;15.57;4.45;;;;;;;;;;4963245;28;20481;-65
2021/09/25 00:22:36;;;;;;;15.50;4.20;;;;;;;;;;4968519;28;20042;-64
2021/09/25 00:25:02;;;;;;;25.48;5.13;;;;;;;;;;4970721;28;20026;-64
2021/09/25 00:27:28;;;;;;;20.35;5.20;;;;;;;;;;4944971;28;20041;-63
2021/09/25 00:29:56;;;;;;;21.40;4.40;;;;;;;;;;4943443;28;20054;-64
2021/09/25 00:32:24;;;;;;;21.77;4.85;;;;;;;;;;4966879;28;20213;-64
2021/09/25 00:34:50;;;;;;;30.70;5.40;;;;;;;;;;4949865;28;20068;-65
2021/09/25 00:37:18;;;;;;;20.45;4.82;;;;;;;;;;4967053;28;20046;-64
2021/09/25 00:39:48;;;;;;;29.92;5.68;;;;;;;;;;4954047;28;20113;-65
2021/09/25 00:42:16;;;;;;;19.77;5.32;;;;;;;;;;4947512;28;20553;-64
2021/09/25 00:44:44;;;;;;;16.65;4.40;;;;;;;;;;4970515;28;20034;-63
2021/09/25 00:47:12;;;;;;;26.10;5.05;;;;;;;;;;4944232;28;21400;-64
2021/09/25 00:49:43;;;;;;;19.90;4.78;;;;;;;;;;4969744;28;20033;-64
2021/09/25 00:52:09;;;;;;;21.15;5.25;;;;;;;;;;4961402;28;20559;-65
2021/09/25 00:54:35;;;;;;;18.90;5.18;;;;;;;;;;4969074;28;20193;-62
2021/09/25 00:57:00;;;;;;;19.38;5.30;;;;;;;;;;4920430;28;20262;-63
2021/09/25 00:59:26;;;;;;;19.30;4.57;;;;;;;;;;4944662;28;20125;-64
2021/09/25 01:01:51;;;;;;;26.50;6.13;;;;;;;;;;4954032;28;20042;-64
2021/09/25 01:04:19;;;;;;;30.20;6.07;;;;;;;;;;4954881;28;20058;-63
2021/09/25 01:06:45;;;;;;;21.52;5.22;;;;;;;;;;4946721;28;20038;-64
2021/09/25 01:09:10;;;;;;;19.83;5.07;;;;;;;;;;4945119;28;20034;-63
2021/09/25 01:11:36;;;;;;;23.20;5.50;;;;;;;;;;4942996;28;20038;-64
2021/09/25 01:14:04;;;;;;;25.88;5.90;;;;;;;;;;4970332;28;20042;-64
2021/09/25 01:16:32;;;;;;;20.50;6.53;;;;;;;;;;4960518;28;20192;-64
2021/09/25 01:18:58;;;;;;;24.63;5.07;;;;;;;;;;4960042;28;20546;-64
2021/09/25 01:21:24;;;;;;;32.45;6.18;;;;;;;;;;4945131;28;20040;-64
2021/09/25 01:23:50;;;;;;;20.38;5.60;;;;;;;;;;4946165;28;20117;-64
2021/09/25 01:26:20;;;;;;;38.00;6.57;;;;;;;;;;4968830;28;20042;-64
2021/09/25 01:28:46;;;;;;;22.80;5.82;;;;;;;;;;4969893;28;20165;-66
2021/09/25 01:31:16;;;;;;;20.40;6.65;;;;;;;;;;4943966;28;20493;-64
2021/09/25 01:33:43;;;;;;;28.40;7.57;;;;;;;;;;4968891;28;20157;-63
2021/09/25 01:36:11;;;;;;;20.40;6.55;;;;;;;;;;4951567;28;20038;-63
2021/09/25 01:38:37;;;;;;;26.67;6.32;;;;;;;;;;4944045;28;20042;-64
2021/09/25 01:41:04;;;;;;;29.15;6.57;;;;;;;;;;4960452;28;20493;-64
2021/09/25 01:43:32;;;;;;;21.75;5.70;;;;;;;;;;4944475;28;20045;-65
2021/09/25 01:46:00;;;;;;;21.88;6.43;;;;;;;;;;4959588;28;20065;-64
2021/09/25 01:48:28;;;;;;;14.20;6.15;;;;;;;;;;4944924;28;20053;-64
2021/09/25 01:50:53;;;;;;;31.70;6.20;;;;;;;;;;4944645;28;20030;-64
2021/09/25 01:53:19;;;;;;;22.88;6.65;;;;;;;;;;4955465;28;20086;-62
2021/09/25 01:55:45;;;;;;;20.05;6.50;;;;;;;;;;4967940;28;20026;-62
2021/09/25 01:58:10;;;;;;;16.60;6.88;;;;;;;;;;4958818;28;20026;-66
2021/09/25 02:00:41;;;;;;;20.67;5.82;;;;;;;;;;4943546;28;20034;-63
2021/09/25 02:03:11;;;;;;;22.73;6.40;;;;;;;;;;4953974;28;20036;-64
2021/09/25 02:05:37;;;;;;;14.60;5.90;;;;;;;;;;4944036;28;20126;-63
2021/09/25 02:08:04;;;;;;;18.33;5.95;;;;;;;;;;4943056;28;20501;-63
2021/09/25 02:10:32;;;;;;;24.08;6.22;;;;;;;;;;4928193;28;20034;-64
2021/09/25 02:12:57;;;;;;;21.23;5.80;;;;;;;;;;4951368;28;20041;-63
2021/09/25 02:15:23;;;;;;;19.38;6.60;;;;;;;;;;4946299;28;20030;-62
2021/09/25 02:17:48;;;;;;;22.10;5.70;;;;;;;;;;4926226;28;20406;-63
2021/09/25 02:20:18;;;;;;;20.08;5.88;;;;;;;;;;4925967;28;20034;-63
2021/09/25 02:22:44;;;;;;;28.73;6.20;;;;;;;;;;4926988;28;20035;-63
2021/09/25 02:25:12;;;;;;;21.48;6.28;;;;;;;;;;4942898;28;20089;-63
2021/09/25 02:27:43;;;;;;;22.45;6.07;;;;;;;;;;4943449;28;20042;-64
2021/09/25 02:30:18;;;;;;;24.27;5.97;;;;;;;;;;4931072;28;20616;-64
2021/09/25 02:32:45;;;;;;;18.70;5.90;;;;;;;;;;4959219;28;20076;-64
2021/09/25 02:35:16;;;;;;;21.85;6.07;;;;;;;;;;4968505;28;20041;-64
2021/09/25 02:37:42;;;;;;;22.10;5.20;;;;;;;;;;4951638;28;20026;-64
2021/09/25 02:40:13;;;;;;;26.80;5.40;;;;;;;;;;4928563;28;20556;-63
2021/09/25 02:42:42;;;;;;;16.40;5.97;;;;;;;;;;4928575;28;20038;-63
2021/09/25 02:45:07;;;;;;;19.02;6.47;;;;;;;;;;4959559;28;20028;-64
2021/09/25 02:47:36;;;;;;;21.80;5.47;;;;;;;;;;4958812;28;20061;-64
2021/09/25 02:50:01;;;;;;;29.88;5.50;;;;;;;;;;4940806;28;20188;-63
2021/09/25 02:52:34;;;;;;;15.55;5.50;;;;;;;;;;4970254;28;20026;-64
2021/09/25 02:55:04;;;;;;;23.05;5.28;;;;;;;;;;4974058;28;20027;-65
2021/09/25 02:57:30;;;;;;;22.25;6.30;;;;;;;;;;4970546;28;20080;-64
2021/09/25 03:00:01;;;;;;;25.88;5.57;;;;;;;;;;4957807;28;20026;-63
2021/09/25 03:02:29;;;;;;;18.70;5.32;;;;;;;;;;4962031;28;20090;-63
2021/09/25 03:04:54;;;;;;;16.63;5.30;;;;;;;;;;4954103;28;20182;-64
2021/09/25 03:07:19;;;;;;;23.75;6.10;;;;;;;;;;4973045;28;20042;-63
2021/09/25 03:09:49;;;;;;;22.05;5.55;;;;;;;;;;4937446;28;20228;-64
2021/09/25 03:12:15;;;;;;;18.83;5.60;;;;;;;;;;4946703;28;20046;-65
2021/09/25 03:14:41;;;;;;;17.27;5.28;;;;;;;;;;4946641;28;20046;-64
2021/09/25 03:17:09;;;;;;;22.05;5.88;;;;;;;;;;4945351;28;20309;-63
2021/09/25 03:19:34;;;;;;;23.17;6.97;;;;;;;;;;4948073;28;20721;-63
2021/09/25 03:22:02;;;;;;;19.15;5.82;;;;;;;;;;4954551;28;20126;-63
2021/09/25 03:24:27;;;;;;;27.88;6.10;;;;;;;;;;4947991;28;20061;-64
2021/09/25 03:26:55;;;;;;;24.77;6.53;;;;;;;;;;4944095;28;20205;-63
2021/09/25 03:29:21;;;;;;;26.52;6.55;;;;;;;;;;4940128;28;20026;-64
2021/09/25 03:31:49;;;;;;;31.38;6.65;;;;;;;;;;4947033;28;20065;-64
2021/09/25 03:34:22;;;;;;;19.90;6.15;;;;;;;;;;4953271;28;20034;-64
2021/09/25 03:36:50;;;;;;;26.92;7.22;;;;;;;;;;4943225;28;20036;-65
2021/09/25 03:39:20;;;;;;;30.08;6.57;;;;;;;;;;4973176;28;20066;-64
2021/09/25 03:41:48;;;;;;;26.92;5.80;;;;;;;;;;4946268;28;20038;-63
2021/09/25 03:44:16;;;;;;;27.25;6.40;;;;;;;;;;4929476;28;20034;-63
2021/09/25 03:46:42;;;;;;;30.95;6.93;;;;;;;;;;4970295;28;20037;-66
2021/09/25 03:49:07;;;;;;;21.67;6.38;;;;;;;;;;4929827;28;20560;-63
2021/09/25 03:51:35;;;;;;;30.85;6.82;;;;;;;;;;4936507;28;21981;-64
2021/09/25 03:54:01;;;;;;;22.60;6.68;;;;;;;;;;4932015;28;20070;-63
2021/09/25 03:56:29;;;;;;;25.52;6.38;;;;;;;;;;4932471;28;20039;-65
2021/09/25 03:58:59;;;;;;;25.40;6.75;;;;;;;;;;4969275;28;20501;-64
2021/09/25 04:01:32;;;;;;;19.50;6.03;;;;;;;;;;4944332;28;20033;-64
2021/09/25 04:03:58;;;;;;;27.02;6.18;;;;;;;;;;4961165;28;20037;-64
2021/09/25 04:06:26;;;;;;;20.65;5.82;;;;;;;;;;4931000;28;20036;-63
2021/09/25 04:08:54;;;;;;;25.20;7.20;;;;;;;;;;4945597;28;20129;-64
2021/09/25 04:11:22;;;;;;;22.80;8.02;;;;;;;;;;4961480;28;20151;-64
2021/09/25 04:13:49;;;;;;;20.90;6.68;;;;;;;;;;4931451;28;20165;-63
2021/09/25 04:16:28;;;;;;;29.52;7.30;;;;;;;;;;4930920;28;20416;-62
2021/09/25 04:18:56;;;;;;;25.23;6.63;;;;;;;;;;4969687;28;20928;-64
2021/09/25 04:21:24;;;;;;;18.42;6.53;;;;;;;;;;4947521;28;20145;-64
2021/09/25 04:23:52;;;;;;;34.47;7.38;;;;;;;;;;4949593;28;20043;-64
2021/09/25 04:26:22;;;;;;;26.90;6.03;;;;;;;;;;4943165;28;20050;-63
2021/09/25 04:28:53;;;;;;;19.10;5.32;;;;;;;;;;4952178;28;20046;-63
2021/09/25 04:31:19;;;;;;;19.42;5.88;;;;;;;;;;4934533;28;20112;-64
2021/09/25 04:33:47;;;;;;;22.58;6.78;;;;;;;;;;4970043;28;20121;-64
2021/09/25 04:36:12;;;;;;;24.63;6.45;;;;;;;;;;4960650;28;20136;-64
2021/09/25 04:38:42;;;;;;;27.55;6.85;;;;;;;;;;4944728;28;20362;-63
2021/09/25 04:41:08;;;;;;;29.80;6.18;;;;;;;;;;4958635;28;20138;-63
2021/09/25 04:43:34;;;;;;;22.83;6.32;;;;;;;;;;4944853;28;20050;-63
2021/09/25 04:46:02;;;;;;;22.05;6.78;;;;;;;;;;4945287;28;20038;-63
2021/09/25 04:48:30;;;;;;;23.92;6.53;;;;;;;;;;4941823;28;20072;-64
2021/09/25 04:50:57;;;;;;;23.92;6.53;;;;;;;;;;4943128;28;20235;-64
2021/09/25 04:53:23;;;;;;;36.83;6.75;;;;;;;;;;4959954;28;20121;-62
2021/09/25 04:55:48;;;;;;;20.77;7.72;;;;;;;;;;4940043;28;20111;-62
2021/09/25 04:58:14;;;;;;;22.02;6.38;;;;;;;;;;4936976;28;20499;-64
2021/09/25 05:00:39;;;;;;;19.45;6.05;;;;;;;;;;4928058;28;20092;-63
2021/09/25 05:03:05;;;;;;;23.90;6.35;;;;;;;;;;4970757;28;20061;-64
2021/09/25 05:05:33;;;;;;;26.73;8.00;;;;;;;;;;4939502;28;20658;-63
2021/09/25 05:07:59;;;;;;;18.75;6.35;;;;;;;;;;4969960;28;20039;-64
2021/09/25 05:10:27;;;;;;;29.63;7.10;;;;;;;;;;4953678;28;20563;-63
2021/09/25 05:12:58;;;;;;;20.30;7.28;;;;;;;;;;4949854;28;20027;-63
2021/09/25 05:15:23;;;;;;;20.40;6.43;;;;;;;;;;4944431;28;20034;-63
2021/09/25 05:17:49;;;;;;;26.90;6.82;;;;;;;;;;4953880;28;20037;-63
2021/09/25 05:20:17;;;;;;;27.98;7.28;;;;;;;;;;4944686;28;20030;-63
2021/09/25 05:22:44;;;;;;;26.90;6.70;;;;;;;;;;4953891;28;20512;-63
2021/09/25 05:25:10;;;;;;;24.05;6.70;;;;;;;;;;4953294;28;20034;-63
2021/09/25 05:27:36;;;;;;;33.53;7.28;;;;;;;;;;4925947;28;20039;-63
2021/09/25 05:30:05;;;;;;;21.48;6.72;;;;;;;;;;4945392;28;20188;-64
2021/09/25 05:32:33;;;;;;;26.17;6.70;;;;;;;;;;4952167;28;20263;-64
2021/09/25 05:34:59;;;;;;;30.83;8.65;;;;;;;;;;4952913;28;20055;-62
2021/09/25 05:37:24;;;;;;;23.67;6.10;;;;;;;;;;4925609;28;20103;-64
2021/09/25 05:39:54;;;;;;;28.00;6.90;;;;;;;;;;4953773;28;20754;-64
2021/09/25 05:42:20;;;;;;;33.92;6.80;;;;;;;;;;4927028;28;20530;-64
2021/09/25 05:44:46;;;;;;;32.38;7.88;;;;;;;;;;4960095;28;20031;-64
2021/09/25 05:47:14;;;;;;;31.20;6.88;;;;;;;;;;4934424;28;20675;-63
2021/09/25 05:49:44;;;;;;;36.33;7.60;;;;;;;;;;4970325;28;20112;-65
2021/09/25 05:52:16;;;;;;;25.02;6.43;;;;;;;;;;4967574;28;20031;-63
2021/09/25 05:54:43;;;;;;;28.83;7.85;;;;;;;;;;4945226;28;20064;-63
2021/09/25 05:57:09;;;;;;;31.05;7.85;;;;;;;;;;4943547;28;20061;-65
2021/09/25 05:59:37;;;;;;;22.50;7.03;;;;;;;;;;4969273;28;20054;-63
2021/09/25 06:02:04;;;;;;;18.45;7.10;;;;;;;;;;4969345;28;20026;-64
2021/09/25 06:04:29;;;;;;;29.35;7.55;;;;;;;;;;4960840;28;20034;-64
2021/09/25 06:06:55;;;;;;;41.63;8.98;;;;;;;;;;4928677;28;20084;-64
2021/09/25 06:09:23;;;;;;;33.25;7.47;;;;;;;;;;4927136;28;20072;-65
2021/09/25 06:11:51;;;;;;;30.25;7.70;;;;;;;;;;4953660;28;20370;-65
2021/09/25 06:14:19;;;;;;;20.65;7.65;;;;;;;;;;4970499;28;20193;-64
2021/09/25 06:16:50;;;;;;;32.33;8.07;;;;;;;;;;4944127;28;20559;-64
2021/09/25 06:19:16;;;;;;;40.40;8.73;;;;;;;;;;4968690;28;20531;-64
2021/09/25 06:21:47;;;;;;;24.65;7.32;;;;;;;;;;4943989;28;20030;-65
2021/09/25 06:24:14;;;;;;;23.85;7.40;;;;;;;;;;4943209;28;21097;-64
2021/09/25 06:26:42;;;;;;;25.90;7.40;;;;;;;;;;4962876;28;20521;-63
2021/09/25 06:29:10;;;;;;;29.42;7.95;;;;;;;;;;4962893;28;20468;-67
2021/09/25 06:31:38;;;;;;;29.40;7.22;;;;;;;;;;4931613;28;20053;-63
2021/09/25 06:34:09;;;;;;;27.35;7.43;;;;;;;;;;4957350;28;21027;-64
2021/09/25 06:36:40;;;;;;;28.70;7.30;;;;;;;;;;4947101;28;20030;-64
2021/09/25 06:39:05;;;;;;;24.35;6.57;;;;;;;;;;4946798;28;20545;-63
2021/09/25 06:41:30;;;;;;;25.90;7.22;;;;;;;;;;4928459;28;20041;-64
2021/09/25 06:43:56;;;;;;;20.33;6.68;;;;;;;;;;4946482;28;20030;-64
2021/09/25 06:46:21;;;;;;;20.60;6.93;;;;;;;;;;4940051;28;20052;-65
2021/09/25 06:49:09;;;;;;;33.97;7.68;;;;;;;;;;4956131;28;20133;-66
2021/09/25 06:51:34;;;;;;;23.33;6.85;;;;;;;;;;4946400;28;20026;-63
2021/09/25 06:54:00;;;;;;;27.80;8.02;;;;;;;;;;4970141;28;20035;-64
2021/09/25 06:56:25;;;;;;;23.40;7.57;;;;;;;;;;4954773;28;20168;-64
2021/09/25 06:58:58;;;;;;;24.38;7.68;;;;;;;;;;4972452;28;20073;-64
2021/09/25 07:01:26;;;;;;;20.75;6.80;;;;;;;;;;4948143;28;21646;-64
2021/09/25 07:03:53;;;;;;;23.88;6.85;;;;;;;;;;4947136;28;20393;-64
2021/09/25 07:06:24;;;;;;;30.10;7.70;;;;;;;;;;4971367;28;20486;-65
2021/09/25 07:08:52;;;;;;;19.35;7.03;;;;;;;;;;4947237;28;20035;-65
2021/09/25 07:11:22;;;;;;;23.60;7.03;;;;;;;;;;4954001;28;20031;-65
2021/09/25 07:13:50;;;;;;;13.63;5.63;;;;;;;;;;4962154;28;20038;-65
2021/09/25 07:16:18;;;;;;;19.77;6.82;;;;;;;;;;4930276;28;20034;-64
2021/09/25 07:18:48;;;;;;;14.02;5.97;;;;;;;;;;4945585;28;20026;-64
2021/09/25 07:21:14;;;;;;;21.15;6.85;;;;;;;;;;4947358;28;20035;-66
2021/09/25 07:23:42;;;;;;;13.18;5.60;;;;;;;;;;4929971;28;20884;-63
2021/09/25 07:26:10;;;;;;;22.30;6.10;;;;;;;;;;4969472;28;20062;-65
2021/09/25 07:28:45;;;;;;;22.70;6.30;;;;;;;;;;4946828;28;20135;-63
2021/09/25 07:31:13;;;;;;;19.60;5.70;;;;;;;;;;4930932;28;20054;-65
2021/09/25 07:33:41;;;;;;;24.48;5.53;;;;;;;;;;4971810;28;20041;-64
2021/09/25 07:36:09;;;;;;;31.10;6.03;;;;;;;;;;4946634;28;20178;-65
2021/09/25 07:38:34;;;;;;;28.17;5.72;;;;;;;;;;4962427;28;21007;-64
2021/09/25 07:41:03;;;;;;;24.83;5.47;;;;;;;;;;4963000;28;20451;-65
2021/09/25 07:43:31;;;;;;;10.07;4.70;;;;;;;;;;4977817;28;20130;-64
2021/09/25 07:45:58;;;;;;;14.65;4.65;;;;;;;;;;4934854;28;20038;-65
2021/09/25 07:48:26;;;;;;;8.80;4.38;;;;;;;;;;4970136;28;20041;-65
2021/09/25 07:50:54;;;;;;;12.88;4.93;;;;;;;;;;4961674;28;20590;-65
2021/09/25 07:53:22;;;;;;;11.15;3.97;;;;;;;;;;4951454;28;20033;-63
2021/09/25 07:55:50;;;;;;;8.77;3.85;;;;;;;;;;4945401;28;20057;-65
2021/09/25 07:58:20;;;;;;;8.57;3.60;;;;;;;;;;4928095;28;20069;-65
2021/09/25 08:00:46;;;;;;;12.60;3.67;;;;;;;;;;4947127;28;20038;-66
2021/09/25 08:03:11;;;;;;;11.18;3.58;;;;;;;;;;4970815;28;20038;-64
2021/09/25 08:05:37;;;;;;;11.57;3.75;;;;;;;;;;4963174;28;20122;-65
2021/09/25 08:08:02;;;;;;;8.73;2.95;;;;;;;;;;4952371;28;20038;-65
2021/09/25 08:10:38;;;;;;;11.52;3.95;;;;;;;;;;4971800;28;20133;-65
2021/09/25 08:13:05;;;;;;;9.55;3.47;;;;;;;;;;4927380;28;20034;-63
2021/09/25 08:15:31;;;;;;;11.75;3.90;;;;;;;;;;4952992;28;20041;-64
2021/09/25 08:17:59;;;;;;;11.80;3.60;;;;;;;;;;4953369;28;20604;-65
2021/09/25 08:20:27;;;;;;;13.05;3.67;;;;;;;;;;4945727;28;20030;-64
2021/09/25 08:22:52;;;;;;;11.68;3.63;;;;;;;;;;4929348;28;20076;-65
2021/09/25 08:25:20;;;;;;;10.63;4.15;;;;;;;;;;4946643;28;20109;-65
2021/09/25 08:27:49;;;;;;;9.68;3.13;;;;;;;;;;4960258;28;20137;-66
2021/09/25 08:30:19;;;;;;;9.43;3.33;;;;;;;;;;4953854;28;20055;-65
2021/09/25 08:32:49;;;;;;;17.40;3.75;;;;;;;;;;4946518;28;21194;-64
2021/09/25 08:35:21;;;;;;;6.03;2.80;;;;;;;;;;4944942;28;20066;-65
2021/09/25 08:37:52;;;;;;;10.15;3.10;;;;;;;;;;4970331;28;20030;-66
2021/09/25 08:40:22;;;;;;;7.72;3.22;;;;;;;;;;4929302;28;20030;-64
2021/09/25 08:42:50;;;;;;;10.68;2.80;;;;;;;;;;4949372;28;20030;-66
2021/09/25 08:45:19;;;;;;;12.02;3.33;;;;;;;;;;4971444;28;20100;-64
2021/09/25 08:47:46;;;;;;;14.07;2.70;;;;;;;;;;4968091;28;20034;-65
2021/09/25 08:50:15;;;;;;;6.95;2.58;;;;;;;;;;4970685;28;20040;-65
2021/09/25 08:52:41;;;;;;;11.63;3.42;;;;;;;;;;4942321;28;20041;-65
2021/09/25 08:55:07;;;;;;;5.95;2.45;;;;;;;;;;4946572;28;20045;-65
2021/09/25 08:57:33;;;;;;;6.47;2.42;;;;;;;;;;4961112;28;20585;-65
2021/09/25 09:00:17;;;;;;;13.80;3.33;;;;;;;;;;4954382;28;20041;-66
2021/09/25 09:02:43;;;;;;;14.13;3.30;;;;;;;;;;4945341;28;20845;-66
2021/09/25 09:05:14;;;;;;;6.65;2.97;;;;;;;;;;4947162;28;21022;-63
2021/09/25 09:07:44;;;;;;;9.30;2.65;;;;;;;;;;4971737;28;20033;-65
2021/09/25 09:10:13;;;;;;;19.63;3.55;;;;;;;;;;4961741;28;20042;-65
2021/09/25 09:12:41;;;;;;;9.48;2.55;;;;;;;;;;4954692;28;20762;-65
2021/09/25 09:15:12;;;;;;;12.23;2.95;;;;;;;;;;4954506;28;20799;-66
2021/09/25 09:17:42;;;;;;;8.63;3.08;;;;;;;;;;4970875;28;20034;-65
2021/09/25 09:20:12;;;;;;;14.15;3.15;;;;;;;;;;4955547;28;20185;-65
2021/09/25 09:22:39;;;;;;;5.93;2.50;;;;;;;;;;4944346;28;20411;-66
2021/09/25 09:25:08;;;;;;;6.07;2.28;;;;;;;;;;4960429;28;20035;-66
2021/09/25 09:27:34;;;;;;;13.27;3.08;;;;;;;;;;4966801;28;20088;-65
2021/09/25 09:30:14;;;;;;;7.28;2.53;;;;;;;;;;4935278;28;20046;-66
2021/09/25 09:32:48;;;;;;;8.57;2.53;;;;;;;;;;4971264;28;20724;-65
2021/09/25 09:35:21;;;;;;;6.63;1.98;;;;;;;;;;4943609;28;20163;-64
2021/09/25 09:37:49;;;;;;;9.13;2.40;;;;;;;;;;4930258;28;20181;-64
2021/09/25 09:40:18;;;;;;;7.60;2.20;;;;;;;;;;4952579;28;20015;-65
2021/09/25 09:42:52;;;;;;;9.13;2.53;;;;;;;;;;4943072;28;20552;-65
2021/09/25 09:45:36;;;;;;;14.52;2.83;;;;;;;;;;4946253;28;20771;-66
2021/09/25 09:48:16;;;;;;;12.70;2.60;;;;;;;;;;4944711;28;20070;-66
2021/09/25 09:50:43;;;;;;;5.40;2.38;;;;;;;;;;4945199;28;20042;-65
2021/09/25 09:53:13;;;;;;;7.00;2.17;;;;;;;;;;4966890;28;20116;-65
2021/09/25 09:56:17;;;;;;;4.60;2.00;;;;;;;;;;4970725;28;20232;-66
2021/09/25 09:58:43;;;;;;;8.10;2.28;;;;;;;;;;4944166;28;20034;-66
2021/09/25 10:01:24;;;;;;;8.20;2.40;;;;;;;;;;4957250;28;20030;-66
2021/09/25 10:03:50;;;;;;;3.47;2.17;;;;;;;;;;4930193;28;20041;-66
2021/09/25 10:06:16;;;;;;;6.55;2.50;;;;;;;;;;4971513;28;20035;-66
2021/09/25 10:08:44;;;;;;;12.23;2.50;;;;;;;;;;4930828;28;20901;-64
2021/09/25 10:11:10;;;;;;;9.82;2.83;;;;;;;;;;4970562;28;20868;-66
2021/09/25 10:13:39;;;;;;;8.15;2.60;;;;;;;;;;4974437;28;20037;-66
2021/09/25 10:16:07;;;;;;;8.63;2.58;;;;;;;;;;4957683;28;20027;-65
2021/09/25 10:18:33;;;;;;;6.63;2.58;;;;;;;;;;4944998;28;20031;-66
2021/09/25 10:21:06;;;;;;;10.48;2.38;;;;;;;;;;4958138;28;20030;-67
2021/09/25 10:23:32;;;;;;;6.28;2.17;;;;;;;;;;4971677;28;20026;-64
2021/09/25 10:25:58;;;;;;;7.40;2.40;;;;;;;;;;4970869;28;20026;-65
2021/09/25 10:28:25;;;;;;;3.65;1.80;;;;;;;;;;4930818;28;20607;-65
2021/09/25 10:30:53;;;;;;;5.20;1.85;;;;;;;;;;4970779;28;20039;-66
2021/09/25 10:33:24;;;;;;;10.38;2.72;;;;;;;;;;4972094;28;20027;-66
2021/09/25 10:35:50;;;;;;;5.20;2.42;;;;;;;;;;4938700;28;20153;-67
2021/09/25 10:38:32;;;;;;;6.55;2.17;;;;;;;;;;4972361;28;20023;-66
2021/09/25 10:41:14;;;;;;;4.95;2.53;;;;;;;;;;4946153;28;20039;-67
2021/09/25 10:43:51;;;;;;;7.07;2.45;;;;;;;;;;4946868;28;20243;-66
2021/09/25 10:46:19;;;;;;;6.55;2.03;;;;;;;;;;4963307;28;20579;-67
2021/09/25 10:48:49;;;;;;;8.63;2.30;;;;;;;;;;4989209;28;21980;-65
2021/09/25 10:51:15;;;;;;;4.40;1.73;;;;;;;;;;4947186;28;20212;-66
2021/09/25 10:53:44;;;;;;;7.20;2.45;;;;;;;;;;4945983;28;20022;-66
2021/09/25 10:56:20;;;;;;;10.10;2.58;;;;;;;;;;4961240;28;20053;-66
2021/09/25 10:58:57;;;;;;;6.32;2.13;;;;;;;;;;4971154;28;20038;-67
2021/09/25 11:01:39;;;;;;;4.43;1.83;;;;;;;;;;4955955;28;20030;-66
2021/09/25 11:04:10;;;;;;;6.63;2.10;;;;;;;;;;4962045;28;20085;-66
2021/09/25 11:06:44;;;;;;;3.95;2.28;;;;;;;;;;4962709;28;20169;-66
2021/09/25 11:09:25;;;;;;;6.53;2.13;;;;;;;;;;4946696;28;20156;-66
2021/09/25 11:11:51;;;;;;;4.65;2.63;;;;;;;;;;4959820;28;20066;-66
2021/09/25 11:14:22;;;;;;;5.15;1.98;;;;;;;;;;4931062;28;20022;-66
2021/09/25 11:16:51;;;;;;;13.95;3.42;;;;;;;;;;4970822;28;20042;-66
2021/09/25 11:19:22;;;;;;;6.93;2.05;;;;;;;;;;4954587;28;20237;-65
2021/09/25 11:21:48;;;;;;;8.90;1.75;;;;;;;;;;4971246;28;20058;-66
2021/09/25 11:24:15;;;;;;;10.65;3.40;;;;;;;;;;4945352;28;20026;-67
2021/09/25 11:26:43;;;;;;;9.68;3.38;;;;;;;;;;4970082;28;20027;-66
2021/09/25 11:29:10;;;;;;;7.25;2.90;;;;;;;;;;4945690;28;20053;-66
2021/09/25 11:31:38;;;;;;;8.68;2.58;;;;;;;;;;4945935;28;20050;-67
2021/09/25 11:34:19;;;;;;;7.63;2.55;;;;;;;;;;4946016;28;20045;-66
2021/09/25 11:36:57;;;;;;;8.93;2.35;;;;;;;;;;4955292;28;20058;-67
2021/09/25 11:39:27;;;;;;;5.75;2.65;;;;;;;;;;4944915;28;20484;-67
2021/09/25 11:42:08;;;;;;;11.23;3.28;;;;;;;;;;4942978;28;20498;-67
2021/09/25 11:44:40;;;;;;;11.18;3.70;;;;;;;;;;4969120;28;20034;-65
2021/09/25 11:47:06;;;;;;;3.70;1.42;;;;;;;;;;4972224;28;20034;-66
2021/09/25 11:49:33;;;;;;;4.03;1.45;;;;;;;;;;4956994;28;20035;-66
2021/09/25 11:51:59;;;;;;;6.78;1.77;;;;;;;;;;4969478;28;20038;-66
2021/09/25 11:54:30;;;;;;;14.38;3.53;;;;;;;;;;4971125;28;20041;-66
2021/09/25 11:56:55;;;;;;;13.15;4.05;;;;;;;;;;4970585;28;20046;-67
2021/09/25 11:59:25;;;;;;;14.35;4.25;;;;;;;;;;4942832;28;20030;-66
2021/09/25 12:01:50;;;;;;;13.68;3.85;;;;;;;;;;4917801;28;20165;-66
2021/09/25 12:04:18;;;;;;;8.38;3.80;;;;;;;;;;4927718;28;20022;-66
2021/09/25 12:06:58;;;;;;;9.63;3.85;;;;;;;;;;4951488;28;20044;-66
2021/09/25 12:09:47;;;;;;;8.15;3.17;;;;;;;;;;4928940;28;20120;-66
2021/09/25 12:12:25;;;;;;;9.68;3.60;;;;;;;;;;4927036;28;20038;-66
2021/09/25 12:14:58;;;;;;;11.00;4.07;;;;;;;;;;4970197;28;20595;-65
2021/09/25 12:17:26;;;;;;;10.85;3.55;;;;;;;;;;4944980;28;20042;-67
2021/09/25 12:19:51;;;;;;;9.00;4.03;;;;;;;;;;4945546;28;20147;-66
2021/09/25 12:22:23;;;;;;;9.00;4.30;;;;;;;;;;4927801;28;20430;-65
2021/09/25 12:24:54;;;;;;;13.15;4.03;;;;;;;;;;4961573;28;20033;-66
2021/09/25 12:27:31;;;;;;;8.82;4.13;;;;;;;;;;4957776;28;20046;-67
2021/09/25 12:30:05;;;;;;;12.93;3.80;;;;;;;;;;4956974;28;20031;-66
2021/09/25 12:32:36;;;;;;;9.10;3.70;;;;;;;;;;4960297;28;20038;-67
2021/09/25 12:35:15;;;;;;;17.25;4.40;;;;;;;;;;4954674;28;20031;-65
2021/09/25 12:37:47;;;;;;;13.40;4.80;;;;;;;;;;4960276;28;20034;-65
2021/09/25 12:40:13;;;;;;;10.95;4.57;;;;;;;;;;4936039;28;20547;-65
2021/09/25 12:42:41;;;;;;;20.40;5.20;;;;;;;;;;4965842;28;20025;-65
2021/09/25 12:45:11;;;;;;;13.50;5.15;;;;;;;;;;4927768;28;20026;-64
2021/09/25 12:47:38;;;;;;;14.75;6.65;;;;;;;;;;4960857;28;20062;-62
2021/09/25 12:50:28;;;;;;;15.63;7.32;;;;;;;;;;4956277;28;20033;-61
2021/09/25 12:52:55;;;;;;;15.00;7.28;;;;;;;;;;4944389;28;20044;-63
2021/09/25 12:55:25;;;;;;;19.65;8.07;;;;;;;;;;4961039;28;20018;-62
2021/09/25 12:58:01;;;;;;;20.73;9.95;;;;;;;;;;4931174;28;20182;-64
2021/09/25 13:00:30;;;;;;;31.70;10.10;;;;;;;;;;4954633;28;20117;-66
2021/09/25 13:02:59;;;;;;;25.35;10.15;;;;;;;;;;4945274;28;20030;-65
2021/09/25 13:05:30;;;;;;;28.58;10.23;;;;;;;;;;4961452;28;20065;-65
2021/09/25 13:08:11;;;;;;;23.35;10.02;;;;;;;;;;4945493;28;20046;-65
2021/09/25 13:10:49;;;;;;;27.23;10.35;;;;;;;;;;4954549;28;20038;-64
2021/09/25 13:13:18;;;;;;;19.13;9.95;;;;;;;;;;4967531;28;20085;-65
2021/09/25 13:15:44;;;;;;;27.30;8.93;;;;;;;;;;4960299;28;20030;-65
2021/09/25 13:18:14;;;;;;;23.73;9.43;;;;;;;;;;4926901;28;20038;-65
2021/09/25 13:20:40;;;;;;;15.00;8.10;;;;;;;;;;4927208;28;20085;-66
2021/09/25 13:23:16;;;;;;;23.02;8.98;;;;;;;;;;4945619;28;20084;-66
2021/09/25 13:25:42;;;;;;;20.98;9.35;;;;;;;;;;4959747;28;20032;-66
2021/09/25 13:28:07;;;;;;;22.23;8.90;;;;;;;;;;4941468;28;20774;-64
2021/09/25 13:30:36;;;;;;;17.38;8.38;;;;;;;;;;4948923;28;20065;-66
2021/09/25 13:33:06;;;;;;;20.80;8.70;;;;;;;;;;4965909;28;20039;-66
2021/09/25 13:35:32;;;;;;;23.85;9.27;;;;;;;;;;4965089;28;20086;-66
2021/09/25 13:37:58;;;;;;;15.50;8.23;;;;;;;;;;4948990;28;20038;-67
2021/09/25 13:40:26;;;;;;;16.40;9.40;;;;;;;;;;4941776;28;20122;-65
2021/09/25 13:42:53;;;;;;;38.35;10.02;;;;;;;;;;4922642;28;20528;-65
2021/09/25 13:45:19;;;;;;;15.65;9.25;;;;;;;;;;4936545;28;20046;-65
2021/09/25 13:47:44;;;;;;;19.75;9.75;;;;;;;;;;4929278;28;20034;-65
2021/09/25 13:50:13;;;;;;;27.63;10.77;;;;;;;;;;4965549;28;20030;-65
2021/09/25 13:52:43;;;;;;;25.80;9.93;;;;;;;;;;4940674;28;20057;-66
2021/09/25 13:55:11;;;;;;;21.63;9.90;;;;;;;;;;4911386;28;20047;-64
2021/09/25 13:57:36;;;;;;;30.15;11.38;;;;;;;;;;4931339;28;20038;-64
2021/09/25 14:00:04;;;;;;;31.67;11.48;;;;;;;;;;4948661;28;20530;-64
2021/09/25 14:02:30;;;;;;;22.52;10.95;;;;;;;;;;4924541;28;20019;-62
2021/09/25 14:04:55;;;;;;;20.63;10.20;;;;;;;;;;4941184;28;20045;-58
2021/09/25 14:07:25;;;;;;;20.52;10.90;;;;;;;;;;4924925;28;20038;-59
2021/09/25 14:09:53;;;;;;;19.90;11.95;;;;;;;;;;4954962;28;22016;-58
2021/09/25 14:12:21;;;;;;;27.95;11.27;;;;;;;;;;4955712;28;20046;-58
2021/09/25 14:14:47;;;;;;;21.30;11.38;;;;;;;;;;4964534;28;20033;-58
2021/09/25 14:17:17;;;;;;;24.90;11.68;;;;;;;;;;4942456;28;20153;-57
2021/09/25 14:19:48;;;;;;;39.03;16.70;;;;;;;;;;4961397;28;20355;-57
2021/09/25 14:22:14;;;;;;;27.95;13.98;;;;;;;;;;4933156;28;20031;-58
2021/09/25 14:24:39;;;;;;;28.17;13.00;;;;;;;;;;4932456;28;20508;-57
2021/09/25 14:27:09;;;;;;;24.60;11.95;;;;;;;;;;4963950;28;20049;-58
2021/09/25 14:29:37;;;;;;;35.20;11.40;;;;;;;;;;4941126;28;20579;-58
2021/09/25 14:32:05;;;;;;;25.42;11.75;;;;;;;;;;4958725;28;20483;-58
2021/09/25 14:34:31;;;;;;;24.33;11.05;;;;;;;;;;4922974;28;20066;-57
2021/09/25 14:36:59;;;;;;;29.13;10.25;;;;;;;;;;4941514;28;20032;-58
2021/09/25 14:39:29;;;;;;;21.08;9.88;;;;;;;;;;4967183;28;20062;-58